• Join FlightAware (Why Join?)
  • Login
  • US Flag 
06:06PM EST


 

Airport Tracker/Info


-or-


 

Live Flight TrackerFlight Track Log ✈ UAL139 ✈ 22-Jun-2013 ✈ KDEN - RJAA / NRT

Flight Track Log - Related Links

Times and Time Zones

All times are in EDT time to prevent confusion due to time zone crossing. See the UAL139 flight status page for this flight to view local times or setup timezone preferences in your user account.

Time Position Orientation Groundspeed Altitude Reporting Facility
EDT Latitude Longitude Course Direction KTS MPH feet Rate Location/Type
02:36PM 39.8570 -104.6750 351° North 2 2  Level FlightAware
02:40PM 39.8570 -104.6740 90° East 13 15 420 Level FlightAware
02:40PM 39.8570 -104.6720 90° East 26 30 600 Level FlightAware
02:41PM 39.8570 -104.6680 90° East 26 30 660 Level FlightAware
02:45PM 39.8650 -104.6620 360° North 23 26 720 Level FlightAware
02:45PM 39.8680 -104.6620 360° North 20 23 1,500 Level FlightAware
02:46PM 39.8700 -104.6620 360° North 20 23 1,680 Level FlightAware
02:47PM 39.8780 -104.6620 360° North 18 21 1,980 Level FlightAware
02:48PM 39.8772 -104.6240 91° East 196 226 5,400 4,800 Climbing FlightAware ADS-B
02:48PM 39.8768 -104.6090 92° East 197 227 5,900 2,580 Climbing FlightAware ADS-B
02:49PM 39.8764 -104.5970 92° East 198 228 6,400 2,760 Climbing FlightAware ADS-B
02:49PM 39.8765 -104.5910 89° East 197 227 6,600 1,980 Climbing FlightAware ADS-B
02:49PM 39.8768 -104.5870 84° East 198 228 6,700 1,500 Climbing FlightAware ADS-B
02:49PM 39.8775 -104.5820 80° East 203 234 6,800 1,200 Climbing FlightAware ADS-B
02:49PM 39.8791 -104.5740 75° East 211 243 6,900 660 Climbing FlightAware ADS-B
02:49PM 39.8823 -104.5610 72° East 227 261 7,000 840 Climbing FlightAware ADS-B
02:49PM 39.8878 -104.5370 73° East 246 283 7,300 1,320 Climbing FlightAware ADS-B
02:50PM 39.8939 -104.5090 74° East 263 303 7,800 1,740 Climbing FlightAware ADS-B
02:50PM 39.8992 -104.4840 75° East 275 316 8,300 1,980 Climbing FlightAware ADS-B
02:50PM 39.9046 -104.4600 74° East 285 328 8,800 1,800 Climbing FlightAware ADS-B
02:50PM 39.9076 -104.4480 72° East 291 335 9,000 1,620 Climbing FlightAware ADS-B
02:50PM 39.9096 -104.4420 67° East 294 338 9,100 1,680 Climbing FlightAware ADS-B
02:50PM 39.9119 -104.4370 59° Northeast 298 343 9,200 1,500 Climbing FlightAware ADS-B
02:51PM 39.9152 -104.4310 54° Northeast 300 345 9,300 2,220 Climbing FlightAware ADS-B
02:51PM 39.9198 -104.4250 45° Northeast 304 350 9,500 1,680 Climbing FlightAware ADS-B
02:51PM 39.9312 -104.4140 36° Northeast 312 359 9,700 1,500 Climbing FlightAware ADS-B
02:51PM 39.9633 -104.3910 29° Northeast 332 382 10,400 1,500 Climbing FlightAware ADS-B
02:51PM 39.9717 -104.3870 20° North 338 389 10,500 1,080 Climbing FlightAware ADS-B
02:51PM 39.9876 -104.3820 14° North 348 400 10,700 1,020 Climbing FlightAware ADS-B
02:52PM 39.9989 -104.3810 North 353 406 10,800 1,200 Climbing FlightAware ADS-B
02:52PM 40.0263 -104.3800 North 366 421 11,200 1,560 Climbing FlightAware ADS-B
02:52PM 40.0429 -104.3820 355° North 368 423 11,500 2,100 Climbing FlightAware ADS-B
02:52PM 40.0502 -104.3840 348° North 368 423 11,700 2,100 Climbing FlightAware ADS-B
02:52PM 40.0656 -104.3910 341° North 368 423 12,000 2,100 Climbing FlightAware ADS-B
02:52PM 40.0720 -104.3950 334° Northwest 368 423 12,200 2,160 Climbing FlightAware ADS-B
02:52PM 40.0810 -104.4030 326° Northwest 368 423 12,400 2,280 Climbing FlightAware ADS-B
02:53PM 40.1233 -104.4430 324° Northwest 374 430 13,600 2,460 Climbing FlightAware ADS-B
02:53PM 40.1694 -104.4870 324° Northwest 378 435 15,000 2,520 Climbing FlightAware ADS-B
02:54PM 40.2122 -104.5280 324° Northwest 376 433 16,300 2,520 Climbing FlightAware ADS-B
02:54PM 40.2562 -104.5680 325° Northwest 380 437 17,600 2,220 Climbing FlightAware ADS-B
02:55PM 40.3015 -104.6100 325° Northwest 387 445 18,600 1,920 Climbing FlightAware ADS-B
02:55PM 40.3179 -104.6260 323° Northwest 389 448 19,000 2,040 Climbing FlightAware ADS-B
02:56PM 40.3641 -104.6710 323° Northwest 395 455 20,100 1,920 Climbing FlightAware ADS-B
02:56PM 40.4082 -104.7150 323° Northwest 403 464 21,000 1,920 Climbing FlightAware ADS-B
02:57PM 40.4539 -104.7600 323° Northwest 407 468 22,100 1,920 Climbing FlightAware ADS-B
02:57PM 40.5000 -104.8060 323° Northwest 414 476 23,000 1,800 Climbing FlightAware ADS-B
02:58PM 40.5466 -104.8520 323° Northwest 420 483 23,900 1,740 Climbing FlightAware ADS-B
02:58PM 40.5854 -104.8900 323° Northwest 427 491 24,600 1,620 Climbing FlightAware ADS-B
02:59PM 40.6346 -104.9350 325° Northwest 433 498 25,400 1,440 Climbing FlightAware ADS-B
02:59PM 40.6914 -104.9890 324° Northwest 439 505 26,200 1,500 Climbing FlightAware ADS-B
03:00PM 40.7409 -105.0420 321° Northwest 440 506 27,100 1,620 Climbing FlightAware ADS-B
03:00PM 40.7888 -105.0940 321° Northwest 444 511 27,900 1,380 Climbing FlightAware ADS-B
03:01PM 40.8478 -105.1610 319° Northwest 449 517 28,700 1,320 Climbing FlightAware ADS-B
03:01PM 40.8992 -105.2140 322° Northwest 455 524 29,400 1,260 Climbing FlightAware ADS-B
03:02PM 40.9580 -105.2740 322° Northwest 462 532 30,100 1,080 Climbing FlightAware
03:03PM 41.0320 -105.3510 322° Northwest 468 539 30,900 1,140 Climbing FlightAware
03:03PM 41.1000 -105.4220 322° Northwest 471 542 31,700 1,140 Climbing FlightAware
03:04PM 41.1700 -105.4960 321° Northwest 473 544 32,500 960 Climbing FlightAware
03:05PM 41.2460 -105.5760 322° Northwest 479 551 33,100 780 Climbing FlightAware
03:06PM 41.3200 -105.6530 322° Northwest 483 556 33,700 900 Climbing FlightAware
03:06PM 41.3860 -105.7240 321° Northwest 489 563 34,300 1,200 Climbing FlightAware
03:07PM 41.4670 -105.8100 322° Northwest 483 556 35,400 1,140 Climbing FlightAware
03:08PM 41.5360 -105.8840 321° Northwest 483 556 36,000 1,080 Climbing FlightAware
03:08PM 41.6100 -105.9630 321° Northwest 475 547 36,900 1,080 Climbing FlightAware
03:09PM 41.6700 -106.0430 315° West 459 528 37,500 480 Climbing FlightAware
03:10PM 41.7270 -106.1330 310° West 465 535 37,600 300 Climbing FlightAware
03:10PM 41.7920 -106.2300 312° West 465 535 38,000 180 Climbing FlightAware
03:11PM 41.8730 -106.3520 312° West 467 537 38,000  Level FlightAware
03:12PM 41.9270 -106.4360 311° West 469 540 38,000  Level FlightAware
03:13PM 41.9720 -106.5080 310° West 469 540 38,000  Level FlightAware
03:13PM 42.0310 -106.6030 310° West 469 540 38,000  Level FlightAware
03:14PM 42.0770 -106.6770 310° West 469 540 38,000  Level FlightAware
03:15PM 42.1220 -106.7500 310° West 469 540 38,000  Level FlightAware
03:16PM 42.1790 -106.8410 310° West 469 540 38,000  Level FlightAware
03:16PM 42.2210 -106.9080 310° West 469 540 38,000  Level FlightAware
03:17PM 42.2770 -106.9990 310° West 469 540 38,000  Level FlightAware
03:18PM 42.3200 -107.0680 310° West 469 540 38,000  Level FlightAware
03:18PM 42.3790 -107.1640 310° West 469 540 38,000  Level FlightAware
03:19PM 42.4210 -107.2310 310° West 469 540 38,000  Level FlightAware
03:20PM 42.4800 -107.3270 310° West 469 540 38,000  Level FlightAware
03:20PM 42.5230 -107.3960 310° West 469 540 38,000  Level FlightAware
03:21PM 42.5790 -107.4860 310° West 469 540 38,000  Level FlightAware
03:22PM 42.6220 -107.5570 309° West 469 540 38,000  Level FlightAware
03:22PM 43.0275 -107.6061 309° West 500 575 38,000  Level Salt Lake Center
03:23PM 43.1322 -107.7225 321° Northwest 505 581 38,000  Level Salt Lake Center
03:25PM 43.2539 -107.8578 321° Northwest 505 581 38,000  Level Salt Lake Center
03:26PM 43.3569 -107.9731 321° Northwest 503 579 38,000  Level Salt Lake Center
03:27PM 43.4781 -108.1094 321° Northwest 503 579 38,000  Level Salt Lake Center
03:28PM 43.5811 -108.2256 321° Northwest 503 579 38,000  Level Salt Lake Center
03:29PM 43.7022 -108.3642 320° Northwest 506 582 38,000  Level Salt Lake Center
03:30PM 43.8178 -108.4961 321° Northwest 507 583 38,000  Level Salt Lake Center
03:31PM 43.9239 -108.6178 320° Northwest 516 594 38,000  Level Salt Lake Center
03:32PM 44.0308 -108.7392 321° Northwest 520 598 38,000  Level Salt Lake Center
03:33PM 44.1531 -108.8814 320° Northwest 515 593 38,000  Level Salt Lake Center
03:34PM 44.2581 -109.0042 320° Northwest 516 594 38,000  Level Salt Lake Center
03:35PM 44.3783 -109.1458 320° Northwest 510 587 38,000  Level Salt Lake Center
03:36PM 44.4831 -109.2694 320° Northwest 513 590 38,000  Level Salt Lake Center
03:37PM 44.6022 -109.4128 319° Northwest 509 586 38,000  Level Salt Lake Center
03:38PM 44.7067 -109.5356 320° Northwest 510 587 38,000  Level Salt Lake Center
03:39PM 44.8281 -109.6800 320° Northwest 513 590 38,000  Level Salt Lake Center
03:40PM 44.9325 -109.8022 320° Northwest 514 592 38,000  Level Salt Lake Center
03:41PM 45.0508 -109.9464 319° Northwest 507 583 38,000  Level Salt Lake Center
03:42PM 45.1531 -110.0711 319° Northwest 508 585 38,000  Level Salt Lake Center
03:43PM 45.2714 -110.2164 319° Northwest 508 585 38,000  Level Salt Lake Center
03:44PM 45.3703 -110.3375 319° Northwest 499 574 38,000  Level Salt Lake Center
03:45PM 45.4717 -110.4650 319° Northwest 505 581 38,000  Level Salt Lake Center
03:46PM 45.5856 -110.6031 320° Northwest 500 575 38,000  Level Salt Lake Center
03:47PM 45.6889 -110.7308 319° Northwest 495 570 38,000  Level Salt Lake Center
03:48PM 45.7925 -110.8578 320° Northwest 495 570 38,000  Level Salt Lake Center
03:49PM 45.9144 -111.0133 318° Northwest 499 574 38,000  Level Salt Lake Center
03:50PM 46.0164 -111.1428 319° Northwest 499 574 38,000  Level Salt Lake Center
03:51PM 46.1172 -111.2739 318° Northwest 495 570 38,000  Level Salt Lake Center
03:52PM 46.2192 -111.4044 318° Northwest 492 566 38,000  Level Salt Lake Center
03:53PM 46.3217 -111.5361 318° Northwest 493 567 38,000  Level Salt Lake Center
03:54PM 46.4239 -111.6692 318° Northwest 495 570 38,000  Level Salt Lake Center
03:55PM 46.5306 -111.8075 318° Northwest 497 572 38,000  Level Salt Lake Center
03:56PM 46.6319 -111.9386 318° Northwest 490 564 38,000 -60 Level Salt Lake Center
03:57PM 46.7547 -112.1006 318° Northwest 494 568 37,900 -60 Descending Salt Lake Center
03:59PM 46.8561 -112.2344 318° Northwest 492 566 37,900  Level Salt Lake Center
04:00PM 46.9572 -112.3678 318° Northwest 490 564 38,000  Climbing Salt Lake Center
04:01PM 47.0581 -112.5033 318° Northwest 491 565 37,900 -60 Descending Salt Lake Center
04:02PM 47.1611 -112.6411 318° Northwest 497 572 37,900  Level Salt Lake Center
04:03PM 47.2594 -112.7750 317° Northwest 485 558 37,900  Level Salt Lake Center
04:04PM 47.3578 -112.9081 318° Northwest 480 552 37,900  Level Salt Lake Center
04:10PM 47.9510 -113.7280 318° Northwest 488 562 38,000  Climbing FlightAware
04:10PM 48.0300 -113.8380 317° Northwest 490 564 38,000  Level FlightAware
04:11PM 48.1020 -113.9410 316° Northwest 493 567 38,000  Level FlightAware
04:11PM 48.1440 -114.0010 316° Northwest 489 563 38,000  Level FlightAware
04:12PM 48.2200 -114.1080 317° Northwest 493 567 38,000  Level FlightAware
04:13PM 48.2930 -114.2130 316° Northwest 493 567 38,000  Level FlightAware
04:14PM 48.3510 -114.2960 316° Northwest 493 567 38,000  Level FlightAware
04:14PM 48.4250 -114.4020 316° Northwest 490 564 38,000  Level FlightAware
04:15PM 48.4900 -114.4970 316° Northwest 488 562 38,000  Level FlightAware
04:16PM 48.6000 -114.6560 316° Northwest 490 564 38,000  Level FlightAware
04:17PM 48.6770 -114.7690 316° Northwest 491 565 38,000  Level FlightAware
04:18PM 48.7920 -114.9370 316° Northwest 490 564 38,000  Level FlightAware
04:19PM 48.8620 -115.0410 316° Northwest 483 556 38,000  Level FlightAware
04:19PM 48.9300 -115.1430 315° West 480 552 38,000  Level FlightAware
04:20PM 48.9930 -115.2360 316° Northwest 477 549 38,000  Level FlightAware
04:21PM 49.0710 -115.3530 316° Northwest 477 549 38,000  Level FlightAware
04:22PM 49.1450 -115.4640 316° Northwest 476 548 38,000  Level FlightAware
04:22PM 49.2170 -115.5720 316° Northwest 480 552 38,000  Level FlightAware
04:23PM 49.2760 -115.6620 315° West 479 551 38,000  Level FlightAware
04:24PM 49.3490 -115.7730 315° West 479 551 38,000  Level FlightAware
04:24PM 49.4060 -115.8610 315° West 481 554 38,000  Level FlightAware
04:25PM 49.4680 -115.9560 315° West 483 556 38,000  Level FlightAware
04:26PM 49.5320 -116.0540 315° West 483 556 38,000  Level FlightAware
04:27PM 49.5960 -116.1700 310° West 481 554 38,000  Level FlightAware
04:27PM 49.6640 -116.3050 308° West 479 551 38,000  Level FlightAware
04:28PM 49.7250 -116.4260 308° West 477 549 38,000  Level FlightAware
04:29PM 49.7850 -116.5450 308° West 480 552 38,000  Level FlightAware
04:30PM 49.8390 -116.6540 308° West 480 552 38,000  Level FlightAware
04:30PM 49.9000 -116.7770 308° West 478 550 38,000  Level FlightAware
04:31PM 49.9540 -116.8860 308° West 481 554 38,000  Level FlightAware
04:32PM 50.0440 -117.0710 307° West 481 554 38,000  Level FlightAware
04:33PM 50.0980 -117.1810 307° West 482 555 38,000  Level FlightAware
04:33PM 50.1450 -117.2770 307° West 483 556 38,000  Level FlightAware
04:34PM 50.2080 -117.4070 307° West 482 555 38,000  Level FlightAware
04:35PM 50.2620 -117.5180 307° West 482 555 38,000  Level FlightAware
04:36PM 50.3230 -117.6450 307° West 483 556 38,000  Level FlightAware
04:36PM 50.3770 -117.7590 307° West 484 557 38,000  Level FlightAware
04:37PM 50.4370 -117.8840 307° West 484 557 38,000  Level FlightAware
04:38PM 50.4890 -117.9950 306° West 483 556 38,000  Level FlightAware
04:38PM 50.5420 -118.1070 307° West 483 556 38,000  Level FlightAware
04:39PM 50.6020 -118.2350 306° West 484 557 38,000  Level FlightAware
04:40PM 50.6560 -118.3490 307° West 485 558 38,000  Level FlightAware
04:40PM 50.7140 -118.4750 306° West 478 550 38,000  Level FlightAware
04:41PM 50.7710 -118.5990 306° West 479 551 38,000  Level FlightAware
04:42PM 50.8370 -118.7400 307° West 477 549 38,000  Level FlightAware
04:43PM 50.8960 -118.8690 306° West 474 545 38,000  Level FlightAware
04:43PM 50.9460 -118.9800 306° West 474 545 38,000  Level FlightAware
04:44PM 51.0040 -119.1080 306° West 475 547 38,000  Level FlightAware
04:45PM 51.0800 -119.2740 306° West 475 547 38,000  Level FlightAware
04:46PM 51.1300 -119.3870 305° West 478 550 38,000  Level FlightAware
04:47PM 51.1820 -119.5030 306° West 481 554 38,000  Level FlightAware
04:47PM 51.2390 -119.6310 305° West 483 556 38,000  Level FlightAware
04:48PM 51.2930 -119.7520 306° West 484 557 38,000  Level FlightAware
04:49PM 51.3500 -119.8820 305° West 485 558 38,000  Level FlightAware
04:49PM 51.4010 -119.9970 305° West 486 559 38,000  Level FlightAware
04:50PM 51.4520 -120.1150 305° West 486 559 38,000  Level FlightAware
04:51PM 51.5110 -120.2500 305° West 483 556 38,000  Level FlightAware
04:51PM 51.5620 -120.3680 305° West 484 557 38,000  Level FlightAware
04:52PM 51.6160 -120.4930 305° West 482 555 38,000  Level FlightAware
04:53PM 51.6660 -120.6110 304° West 480 552 38,000  Level FlightAware
04:54PM 51.7230 -120.7430 305° West 481 554 38,000  Level FlightAware
04:54PM 51.7730 -120.8610 304° West 481 554 38,000  Level FlightAware
04:55PM 51.8300 -120.9970 304° West 477 549 38,000  Level FlightAware
04:56PM 51.8750 -121.1060 304° West 477 549 38,000  Level FlightAware
04:56PM 51.9310 -121.2380 305° West 478 550 38,000  Level FlightAware
04:57PM 51.9830 -121.3620 304° West 473 544 38,000  Level FlightAware
04:58PM 52.0320 -121.4810 304° West 471 542 38,000  Level FlightAware
04:58PM 52.0870 -121.6150 304° West 472 543 38,000  Level FlightAware
04:59PM 52.1330 -121.7280 304° West 473 544 38,000  Level FlightAware
05:00PM 52.1890 -121.8640 304° West 473 544 38,000  Level FlightAware
05:01PM 52.2370 -121.9830 303° West 473 544 38,000  Level FlightAware
05:01PM 52.2860 -122.1040 304° West 474 545 38,000  Level FlightAware
05:02PM 52.3370 -122.2300 304° West 479 551 38,000  Level FlightAware
05:03PM 52.3900 -122.3620 303° West 475 547 38,000  Level FlightAware
05:03PM 52.4410 -122.4900 303° West 474 545 38,000  Level FlightAware
05:04PM 52.4930 -122.6220 303° West 474 545 38,000  Level FlightAware
05:05PM 52.5430 -122.7500 303° West 473 544 38,000  Level FlightAware
05:05PM 52.5900 -122.8690 303° West 472 543 38,000  Level FlightAware
05:06PM 52.6350 -122.9850 303° West 471 542 38,000  Level FlightAware
05:07PM 52.6900 -123.1280 302° West 471 542 38,000  Level FlightAware
05:08PM 52.7390 -123.2560 302° West 472 543 38,000  Level FlightAware
05:08PM 52.7810 -123.3650 303° West 474 545 38,000  Level FlightAware
05:09PM 52.8330 -123.5030 302° West 476 548 38,000  Level FlightAware
05:10PM 52.8840 -123.6370 302° West 477 549 38,000  Level FlightAware
05:10PM 52.9350 -123.7720 302° West 478 550 38,000  Level FlightAware
05:11PM 52.9790 -123.8900 302° West 478 550 38,000  Level FlightAware
05:12PM 53.0300 -124.0260 302° West 478 550 38,000  Level FlightAware
05:12PM 53.0770 -124.1530 302° West 477 549 38,000  Level FlightAware
05:13PM 53.1270 -124.2900 301° West 475 547 38,000  Level FlightAware
05:14PM 53.1740 -124.4170 302° West 472 543 38,000  Level FlightAware
05:15PM 53.2220 -124.5480 302° West 472 543 38,000  Level FlightAware
05:15PM 53.2690 -124.6780 301° West 473 544 38,000  Level FlightAware
05:16PM 53.3180 -124.8160 301° West 478 550 38,000  Level FlightAware
05:17PM 53.3640 -124.9430 301° West 480 552 38,000  Level FlightAware
05:17PM 53.4140 -125.0820 301° West 482 555 38,000  Level FlightAware
05:18PM 53.4600 -125.2120 301° West 481 554 38,000  Level FlightAware
05:19PM 53.5030 -125.3340 301° West 483 556 38,000  Level FlightAware
05:19PM 53.5490 -125.4630 301° West 486 559 38,000  Level FlightAware
05:20PM 53.6040 -125.6200 301° West 485 558 38,000  Level FlightAware
05:21PM 53.6480 -125.7490 300° West 486 559 38,000  Level FlightAware
05:22PM 53.7000 -125.8990 300° West 487 560 38,000  Level FlightAware
05:22PM 53.7450 -126.0300 300° West 486 559 38,000  Level FlightAware
05:23PM 53.7920 -126.1690 300° West 486 559 38,000  Level FlightAware
05:24PM 53.8410 -126.3120 300° West 487 560 38,000  Level FlightAware
05:24PM 53.8870 -126.4460 300° West 488 562 38,000  Level FlightAware
05:25PM 53.9350 -126.5900 300° West 488 562 38,000  Level FlightAware
05:26PM 53.9980 -126.7780 300° West 489 563 38,000  Level FlightAware
05:27PM 54.0420 -126.9110 299° West 490 564 38,000  Level FlightAware
05:27PM 54.0880 -127.0530 299° West 492 566 38,000  Level FlightAware
05:28PM 54.1310 -127.1820 300° West 494 568 38,000  Level FlightAware
05:29PM 54.1770 -127.3230 299° West 495 570 38,000  Level FlightAware
05:29PM 54.2280 -127.4800 299° West 496 571 38,000  Level FlightAware
05:30PM 54.2760 -127.6310 299° West 498 573 38,000  Level FlightAware
05:31PM 54.3190 -127.7650 299° West 498 573 38,000  Level FlightAware
05:32PM 54.3620 -127.9010 299° West 498 573 38,000  Level FlightAware
05:32PM 54.3990 -128.0200 298° West 498 573 38,000  Level FlightAware
05:33PM 54.4610 -128.2120 299° West 497 572 38,000  Level FlightAware
05:34PM 54.5280 -128.4300 298° West 497 572 38,000  Level FlightAware
05:35PM 54.5610 -128.5370 298° West 497 572 38,000  Level FlightAware
05:36PM 54.6050 -128.6800 298° West 497 572 38,000  Level FlightAware
05:36PM 54.6380 -128.7870 298° West 497 572 38,000  Level FlightAware
05:37PM 54.6960 -128.9750 298° West 497 572 38,000  Level FlightAware
05:38PM 54.7290 -129.0830 298° West 497 572 38,000  Level FlightAware
05:39PM 54.7710 -129.2200 298° West 497 572 38,000  Level FlightAware
05:39PM 54.8030 -129.3250 298° West 497 572 38,000  Level FlightAware
05:40PM 54.8470 -129.4690 298° West 497 572 38,000  Level FlightAware
05:41PM 54.8800 -129.5770 298° West 497 572 38,000  Level FlightAware
05:41PM 54.9240 -129.7210 298° West 497 572 38,000  Level FlightAware
05:42PM 54.9560 -129.8260 298° West 497 572 38,000  Level FlightAware
05:43PM 55.0000 -129.9700 298° West 497 572 38,000  Level FlightAware
05:43PM 55.1333 -130.4333 298° West 500 575 38,000  Level Vancouver Center
05:44PM 55.2167 -130.6500 304° West 500 575 38,000  Level Vancouver Center
05:45PM 55.2667 -130.7667 307° West 500 575 38,000  Level Anchorage Center
05:46PM 55.3333 -130.9667 300° West 500 575 38,000  Level Anchorage Center
05:47PM 55.4000 -131.1833 299° West 510 587 38,000  Level Anchorage Center
05:48PM 55.4833 -131.3833 306° West 500 575 38,000  Level Anchorage Center
05:49PM 55.5500 -131.6167 297° West 510 587 38,000  Level Anchorage Center
05:50PM 55.6167 -131.8000 303° West 490 564 38,000  Level Anchorage Center
05:51PM 55.6833 -132.0167 299° West 510 587 38,000  Level Anchorage Center
05:52PM 55.7500 -132.2333 299° West 510 587 38,000  Level Anchorage Center
05:53PM 55.8167 -132.4500 299° West 500 575 38,000  Level Anchorage Center
05:54PM 55.9000 -132.6667 305° West 500 575 38,000  Level Anchorage Center
05:55PM 55.9667 -132.8667 301° West 500 575 38,000  Level Anchorage Center
05:56PM 56.0333 -133.0833 299° West 500 575 38,000  Level Anchorage Center
05:57PM 56.1000 -133.3000 299° West 500 575 38,000  Level Anchorage Center
05:58PM 56.1667 -133.5333 297° West 500 575 38,000  Level Anchorage Center
05:59PM 56.2333 -133.7333 301° West 490 564 38,000  Level Anchorage Center
06:00PM 56.3000 -133.9667 297° West 490 564 38,000  Level Anchorage Center
06:01PM 56.3667 -134.1833 299° West 500 575 38,000  Level Anchorage Center
06:02PM 56.4333 -134.4000 299° West 490 564 38,000  Level Anchorage Center
06:03PM 56.4833 -134.6167 293° West 490 564 38,000  Level Anchorage Center
06:04PM 56.5500 -134.8333 299° West 490 564 38,000  Level Anchorage Center
06:05PM 56.6000 -135.0500 293° West 480 552 38,000  Level Anchorage Center
06:06PM 56.6500 -135.2833 291° West 480 552 38,000  Level Anchorage Center
06:07PM 56.7167 -135.5167 298° West 490 564 38,000  Level Anchorage Center
06:08PM 56.7667 -135.7500 291° West 500 575 38,000  Level Anchorage Center
06:09PM 56.8167 -135.9833 291° West 500 575 38,000  Level Anchorage Center
06:10PM 56.8667 -136.2167 291° West 490 564 38,000  Level Anchorage Center
06:11PM 56.9167 -136.4667 290° West 490 564 38,000  Level Anchorage Center
06:12PM 56.9667 -136.7000 292° West 490 564 38,000  Level Anchorage Center
06:13PM 57.0167 -136.9167 293° West 490 564 38,000  Level Anchorage Center
06:14PM 57.0500 -137.1667 284° West 490 564 38,000  Level Anchorage Center
06:15PM 57.1000 -137.4000 292° West 480 552 38,100 300 Climbing Anchorage Center
06:16PM 57.1500 -137.6333 292° West 500 575 38,700 540 Climbing Anchorage Center
06:17PM 57.2000 -137.8667 292° West 490 564 39,300 600 Climbing Anchorage Center
06:18PM 57.2500 -138.1000 292° West 480 552 40,000 300 Climbing Anchorage Center
06:19PM 57.2833 -138.3333 285° West 480 552 40,000  Level Anchorage Center
06:20PM 57.3333 -138.5833 290° West 480 552 40,000  Level Anchorage Center
06:21PM 57.3833 -138.8167 292° West 480 552 40,000  Level Anchorage Center
06:22PM 57.4167 -139.0500 285° West 480 552 40,000  Level Anchorage Center
06:24PM 57.4667 -139.3333 288° West 470 541 40,000  Level Anchorage Center
06:25PM 57.5167 -139.5667 292° West 480 552 40,000  Level Anchorage Center
06:26PM 57.5500 -139.8000 285° West 490 564 40,000  Level Anchorage Center
06:27PM 57.6000 -140.0500 291° West 480 552 40,000  Level Anchorage Center
06:28PM 57.6333 -140.2833 285° West 480 552 40,000  Level Anchorage Center
06:29PM 57.6833 -140.5167 292° West 480 552 40,000  Level Anchorage Center
06:30PM 57.7167 -140.7667 284° West 480 552 40,000  Level Anchorage Center
06:31PM 57.7667 -141.0000 292° West 480 552 40,000  Level Anchorage Center
06:32PM 57.8000 -141.2500 284° West 480 552 40,000  Level Anchorage Center
06:33PM 57.8333 -141.4833 285° West 480 552 40,000  Level Anchorage Center
06:34PM 57.8833 -141.7333 291° West 480 552 40,000  Level Anchorage Center
06:35PM 57.9167 -141.9833 284° West 480 552 40,000  Level Anchorage Center
06:36PM 57.9333 -142.2167 278° West 480 552 40,000  Level Anchorage Center
06:37PM 57.9667 -142.4667 284° West 470 541 40,000  Level Anchorage Center
06:38PM 57.9833 -142.7167 277° West 470 541 40,000  Level Anchorage Center
06:39PM 58.0167 -142.9667 284° West 480 552 40,000  Level Anchorage Center
06:40PM 58.0333 -143.1667 279° West 480 552 40,000  Level Anchorage Center
06:41PM 58.0667 -143.4167 284° West 480 552 40,000  Level Anchorage Center
06:42PM 58.0833 -143.6833 277° West 480 552 40,000  Level Anchorage Center
06:43PM 58.1167 -143.9167 285° West 470 541 40,000  Level Anchorage Center
06:44PM 58.1333 -144.1667 277° West 470 541 40,000  Level Anchorage Center
06:45PM 58.1667 -144.4167 284° West 480 552 40,000  Level Anchorage Center
06:46PM 58.1833 -144.6667 277° West 470 541 40,000  Level Anchorage Center
06:47PM 58.2000 -144.9167 277° West 470 541 40,000  Level Anchorage Center
06:48PM 58.2333 -145.1667 284° West 470 541 40,000  Level Anchorage Center
06:49PM 58.2500 -145.4167 277° West 470 541 40,000  Level Anchorage Center
06:50PM 58.2667 -145.6500 278° West 470 541 40,000  Level Anchorage Center
06:51PM 58.2833 -145.9167 277° West 480 552 40,000  Level Anchorage Center
06:52PM 58.3167 -146.1667 284° West 470 541 40,000  Level Anchorage Center
06:53PM 58.3333 -146.4167 277° West 470 541 40,000  Level Anchorage Center
06:54PM 58.3500 -146.6667 277° West 470 541 40,000  Level Anchorage Center
06:55PM 58.3667 -146.9167 277° West 470 541 40,000  Level Anchorage Center
06:56PM 58.3833 -147.1667 277° West 470 541 40,000  Level Anchorage Center
06:57PM 58.4167 -147.4167 284° West 470 541 40,000  Level Anchorage Center
06:58PM 58.4333 -147.6667 277° West 470 541 40,000  Level Anchorage Center
06:59PM 58.4500 -147.9167 277° West 470 541 40,000  Level Anchorage Center
07:04PM 58.5330 -149.2690 277° West 479 551 40,000  Level FlightAware
07:05PM 58.5440 -149.4740 276° West 481 554 40,000  Level FlightAware
07:05PM 58.5520 -149.6150 276° West 481 554 40,000  Level FlightAware
07:06PM 58.5620 -149.8200 275° West 483 556 40,000  Level FlightAware
07:07PM 58.5740 -150.0600 276° West 484 557 40,000  Level FlightAware
07:08PM 58.5820 -150.2310 275° West 484 557 40,000  Level FlightAware
07:09PM 58.5890 -150.4020 275° West 484 557 40,000  Level FlightAware
07:09PM 58.5960 -150.5400 276° West 484 557 40,000  Level FlightAware
07:10PM 58.6030 -150.6930 275° West 484 557 40,000  Level FlightAware
07:11PM 58.6090 -150.8430 274° West 484 557 40,000  Level FlightAware
07:11PM 58.6150 -150.9770 275° West 484 557 40,000  Level FlightAware
07:12PM 58.6250 -151.1960 275° West 484 557 40,000  Level FlightAware
07:13PM 58.6330 -151.3710 275° West 484 557 40,000  Level FlightAware
07:14PM 58.6470 -151.8190 274° West 490 564 40,000  Level FlightAware
07:15PM 58.6550 -152.0620 274° West 489 563 40,000  Level FlightAware
07:16PM 58.6610 -152.2610 273° West 489 563 40,000  Level FlightAware
07:17PM 58.6650 -152.4350 273° West 489 563 40,000  Level FlightAware
07:17PM 58.6700 -152.5900 274° West 489 563 40,000  Level FlightAware
07:18PM 58.6730 -152.7230 273° West 489 563 40,000  Level FlightAware
07:19PM 58.6780 -152.9080 273° West 489 563 40,000  Level FlightAware
07:19PM 58.6820 -153.0410 273° West 489 563 40,000  Level FlightAware
07:20PM 58.6870 -153.2180 273° West 489 563 40,000  Level FlightAware
07:21PM 58.6910 -153.3580 273° West 489 563 40,000  Level FlightAware
07:21PM 58.6950 -153.5360 273° West 489 563 40,000  Level FlightAware
07:22PM 58.6990 -153.6610 274° West 489 563 40,000  Level FlightAware
07:23PM 58.7040 -153.8390 273° West 489 563 40,000  Level FlightAware
07:23PM 58.7070 -153.9720 273° West 489 563 40,000  Level FlightAware
07:24PM 58.7120 -154.1490 273° West 489 563 40,000  Level FlightAware
07:25PM 58.7000 -154.6667 273° West 490 564 40,000  Level Anchorage Center
07:26PM 58.7167 -154.9333 277° West 480 552 40,000  Level Anchorage Center
07:27PM 58.7167 -155.2000 270° West 480 552 40,000  Level Anchorage Center
07:28PM 58.7167 -155.4667 270° West 490 564 40,000  Level Anchorage Center
07:29PM 58.7167 -155.7167 270° West 490 564 40,000  Level Anchorage Center
07:30PM 58.7167 -155.9833 270° West 490 564 40,000  Level Anchorage Center
07:31PM 58.7167 -156.2500 270° West 490 564 40,000  Level Anchorage Center
07:32PM 58.7167 -156.5167 270° West 490 564 40,000  Level Anchorage Center
07:33PM 58.7167 -156.7833 270° West 490 564 40,000  Level Anchorage Center
07:34PM 58.7167 -157.0500 270° West 490 564 40,000  Level Anchorage Center
07:35PM 58.7167 -157.3167 270° West 500 575 40,000  Level Anchorage Center
07:36PM 58.7167 -157.5500 270° West 490 564 40,000  Level Anchorage Center
07:37PM 58.7333 -157.8333 277° West 500 575 40,000  Level Anchorage Center
07:38PM 58.7333 -158.1000 270° West 500 575 40,000  Level Anchorage Center
07:39PM 58.7333 -158.3667 270° West 500 575 40,000  Level Anchorage Center
07:40PM 58.7333 -158.6333 270° West 500 575 40,000  Level Anchorage Center
07:41PM 58.7333 -158.9000 270° West 500 575 40,000  Level Anchorage Center
07:42PM 58.7167 -159.1667 263° West 490 564 40,000  Level Anchorage Center
07:43PM 58.7167 -159.4333 270° West 500 575 40,000  Level Anchorage Center
07:44PM 58.7167 -159.7000 270° West 500 575 40,000  Level Anchorage Center
07:45PM 58.7167 -159.9667 270° West 490 564 40,000  Level Anchorage Center
07:46PM 58.7167 -160.2333 270° West 500 575 40,000  Level Anchorage Center
07:47PM 58.7000 -160.5667 265° West 490 564 40,000  Level Anchorage Center
07:48PM 58.7000 -160.8333 270° West 500 575 40,000  Level Anchorage Center
07:49PM 58.7000 -161.1000 270° West 510 587 40,000  Level Anchorage Center
07:50PM 58.6833 -161.3667 263° West 500 575 40,000  Level Anchorage Center
07:51PM 58.6833 -161.6333 270° West 480 552 40,000  Level Anchorage Center
07:52PM 58.6833 -161.8500 270° West 500 575 40,000  Level Anchorage Center
07:53PM 58.6667 -162.1833 265° West 500 575 40,000  Level Anchorage Center
07:54PM 58.6667 -162.4500 270° West 500 575 40,000  Level Anchorage Center
07:55PM 58.6500 -162.6833 262° West 500 575 40,000  Level Anchorage Center
07:56PM 58.6500 -162.9500 270° West 510 587 40,000  Level Anchorage Center
07:57PM 58.6333 -163.2333 264° West 500 575 40,000  Level Anchorage Center
07:58PM 58.6167 -163.5000 263° West 500 575 40,000  Level Anchorage Center
07:59PM 58.6167 -163.7667 270° West 500 575 40,000  Level Anchorage Center
08:00PM 58.6000 -164.0333 263° West 490 564 40,000  Level Anchorage Center
08:01PM 58.5833 -164.3000 263° West 490 564 40,000  Level Anchorage Center
08:02PM 58.5667 -164.5667 263° West 490 564 40,000  Level Anchorage Center
08:03PM 58.5500 -164.8833 264° West 490 564 40,000  Level Anchorage Center
08:04PM 58.5500 -165.0833 270° West 500 575 40,000  Level Anchorage Center
08:05PM 58.5333 -165.3667 264° West 500 575 40,000  Level Anchorage Center
08:06PM 58.5167 -165.6833 264° West 490 564 40,000  Level Anchorage Center
08:07PM 58.5000 -165.9000 262° West 500 575 40,000  Level Anchorage Center
08:08PM 58.4833 -166.2167 264° West 500 575 40,000  Level Anchorage Center
08:09PM 58.4667 -166.4333 262° West 500 575 40,000  Level Anchorage Center
08:10PM 58.4500 -166.6833 263° West 500 575 40,000  Level Anchorage Center
08:11PM 58.4333 -166.9500 263° West 480 552 40,000  Level Anchorage Center
08:12PM 58.4167 -167.2167 263° West 490 564 40,000  Level Anchorage Center
08:13PM 58.4000 -167.4833 263° West 500 575 40,000  Level Anchorage Center
08:14PM 58.3833 -167.7500 263° West 500 575 40,000  Level Anchorage Center
08:15PM 58.3667 -168.0167 263° West 510 587 40,000  Level Anchorage Center
08:16PM 58.3333 -168.2833 257° West 500 575 40,000  Level Anchorage Center
08:17PM 58.3167 -168.5333 263° West 490 564 40,000  Level Anchorage Center
08:18PM 58.3000 -168.8000 263° West 490 564 40,000  Level Anchorage Center
08:19PM 58.2667 -169.0500 256° West 490 564 40,000  Level Anchorage Center
08:20PM 58.2500 -169.3167 263° West 500 575 40,000  Level Anchorage Center
08:21PM 58.2333 -169.5833 263° West 490 564 40,000  Level Anchorage Center
08:22PM 58.2000 -169.8500 257° West 500 575 40,000  Level Anchorage Center
08:23PM 58.1833 -170.1000 263° West 510 587 40,000  Level Anchorage Center
08:24PM 58.1500 -170.3667 257° West 510 587 40,000  Level Anchorage Center
08:25PM 58.1333 -170.6167 263° West 490 564 40,000  Level Anchorage Center
08:26PM 58.1000 -170.8833 257° West 490 564 40,000  Level Anchorage Center
08:27PM 58.0833 -171.1333 263° West 500 575 40,000  Level Anchorage Center
08:28PM 58.0500 -171.3833 256° West 490 564 40,000  Level Anchorage Center
08:29PM 58.0167 -171.6500 257° West 490 564 40,000  Level Anchorage Center
08:30PM 58.0000 -171.9000 263° West 490 564 40,000  Level Anchorage Center
08:31PM 57.9667 -172.1667 257° West 500 575 40,000  Level Anchorage Center
08:32PM 57.9333 -172.4167 256° West 500 575 40,000  Level Anchorage Center
08:33PM 57.9000 -172.6833 257° West 500 575 40,000  Level Anchorage Center
08:34PM 57.8833 -172.9333 263° West 500 575 40,000  Level Anchorage Center
08:35PM 57.8500 -173.1833 256° West 500 575 40,000  Level Anchorage Center
08:36PM 57.8167 -173.4500 257° West 500 575 40,000  Level Anchorage Center
08:37PM 57.7833 -173.7000 256° West 490 564 40,000  Level Anchorage Center
08:38PM 57.7500 -173.9500 256° West 510 587 40,000  Level Anchorage Center
08:39PM 57.7167 -174.2167 257° West 510 587 40,000  Level Anchorage Center
08:40PM 57.6833 -174.4667 256° West 500 575 40,000  Level Anchorage Center
08:41PM 57.6500 -174.7167 256° West 500 575 40,000  Level Anchorage Center
08:42PM 57.6167 -174.9667 256° West 490 564 40,000  Level Anchorage Center
08:43PM 57.5833 -175.2167 256° West 490 564 40,000  Level Anchorage Center
08:44PM 57.5500 -175.4500 255° West 490 564 40,000  Level Anchorage Center
08:45PM 57.5000 -175.7000 250° West 500 575 40,000  Level Anchorage Center
08:46PM 57.4667 -175.9500 256° West 490 564 40,000  Level Anchorage Center
08:47PM 57.4333 -176.2000 256° West 490 564 40,000  Level Anchorage Center
08:49PM 57.3667 -176.7000 254° West 493 567 40,000  Level Anchorage Center
08:56PM 57.0898 -178.3685 252° West 493 567 40,000  Level FlightAware Transoceanic
08:57PM 57.0485 -178.6048 252° West 493 567 40,000  Level FlightAware Transoceanic
08:58PM 57.0067 -178.8405 252° West 493 567 40,000  Level FlightAware Transoceanic
08:59PM 56.9645 -179.0757 252° West 493 567 40,000  Level FlightAware Transoceanic
08:59PM 56.9667 -179.0333 252° West 491 565 40,000  Level Anchorage Center
09:00PM 56.9218 -179.3104 251° West 493 567 40,000  Level FlightAware Transoceanic
09:01PM 56.8787 -179.5446 251° West 493 567 40,000  Level FlightAware Transoceanic
09:02PM 56.8352 -179.7782 251° West 493 567 40,000  Level FlightAware Transoceanic
09:03PM 56.7912 179.9888 251° West 493 567 40,000  Level FlightAware Transoceanic
09:04PM 56.7468 179.7562 251° West 493 567 40,000  Level FlightAware Transoceanic
09:05PM 56.7042 179.5600 251° West 491 565 40,000  Level FlightAware Transoceanic
09:06PM 56.6589 179.3275 250° West 491 565 40,000  Level FlightAware Transoceanic
09:07PM 56.6132 179.0955 250° West 491 565 40,000  Level FlightAware Transoceanic
09:08PM 56.5671 178.8641 250° West 491 565 40,000  Level FlightAware Transoceanic
09:08PM 56.5333 178.7167 250° West 491 565 40,000  Level Anchorage Center
09:09PM 56.5205 178.6333 250° West 491 565 40,000  Level FlightAware Transoceanic
09:10PM 56.4735 178.4030 250° West 491 565 40,000  Level FlightAware Transoceanic
09:11PM 56.4261 178.1734 249° West 491 565 40,000  Level FlightAware Transoceanic
09:12PM 56.3783 177.9443 249° West 491 565 40,000  Level FlightAware Transoceanic
09:13PM 56.3300 177.7157 249° West 491 565 40,000  Level FlightAware Transoceanic
09:14PM 56.2813 177.4878 249° West 491 565 40,000  Level FlightAware Transoceanic
09:15PM 56.2432 177.3262 249° West 491 565 40,000  Level FlightAware Transoceanic
09:15PM 56.2167 177.2667 248° West 500 575 40,000  Level Anchorage Center
09:16PM 56.1933 177.0965 249° West 491 565 40,000  Level FlightAware Transoceanic
09:16PM 56.1833 177.0667 253° West 500 575 40,000  Level Anchorage Center
09:17PM 56.1431 176.8675 248° West 491 565 40,000  Level FlightAware Transoceanic
09:17PM 56.1167 176.8167 245° Southwest 480 552 40,000  Level Anchorage Center
09:18PM 56.0924 176.6390 248° West 491 565 40,000  Level FlightAware Transoceanic
09:18PM 56.0833 176.6167 253° West 490 564 40,000  Level Anchorage Center
09:19PM 56.0412 176.4111 248° West 491 565 40,000  Level FlightAware Transoceanic
09:19PM 56.0333 176.3833 249° West 480 552 40,000  Level Anchorage Center
09:20PM 55.9897 176.1839 248° West 491 565 40,000  Level FlightAware Transoceanic
09:20PM 55.9667 176.1333 245° Southwest 490 564 40,000  Level Anchorage Center
09:21PM 55.9333 175.9333 254° West 480 552 40,000  Level Anchorage Center
09:22PM 55.8667 175.7000 243° Southwest 480 552 40,000  Level Anchorage Center
09:23PM 55.8333 175.5000 254° West 480 552 40,000  Level Anchorage Center
09:24PM 55.7667 175.2667 243° Southwest 470 541 40,000  Level Anchorage Center
09:25PM 55.7167 175.0833 244° Southwest 470 541 40,000  Level Anchorage Center
09:26PM 55.6667 174.8500 249° West 480 552 40,000  Level Anchorage Center
09:27PM 55.6167 174.6500 246° West 480 552 40,000  Level Anchorage Center
09:28PM 55.5667 174.4167 249° West 480 552 40,000  Level Anchorage Center
09:29PM 55.5000 174.1833 243° Southwest 480 552 40,000  Level Anchorage Center
09:30PM 55.4500 174.0000 244° Southwest 480 552 40,000  Level Anchorage Center
09:31PM 55.4000 173.7667 249° West 480 552 40,000  Level Anchorage Center
09:32PM 55.3500 173.5667 246° West 480 552 40,000  Level Anchorage Center
09:33PM 55.2833 173.3500 242° Southwest 480 552 40,000  Level Anchorage Center
09:34PM 55.2500 173.1667 252° West 480 552 40,000  Level Anchorage Center
09:35PM 55.1833 172.9333 243° Southwest 470 541 40,000  Level Anchorage Center
09:36PM 55.1167 172.7000 244° Southwest 480 552 40,000  Level Anchorage Center
09:37PM 55.0667 172.5333 242° Southwest 460 529 40,000  Level Anchorage Center
09:38PM 55.0167 172.3000 250° West 480 552 40,000  Level Anchorage Center
09:39PM 54.9667 172.1333 242° Southwest 470 541 40,000  Level Anchorage Center
09:40PM 54.9000 171.9000 244° Southwest 480 552 40,000  Level Anchorage Center
09:41PM 54.8333 171.7333 235° Southwest 470 541 40,000  Level Anchorage Center
09:42PM 54.7500 171.5500 232° Southwest 470 541 40,000  Level Anchorage Center
09:43PM 54.6833 171.3833 235° Southwest 480 552 40,000  Level Anchorage Center
09:44PM 54.5833 171.1833 229° Southwest 470 541 40,000  Level Anchorage Center
09:45PM 54.5000 170.9667 237° Southwest 480 552 40,000  Level Anchorage Center
09:46PM 54.4333 170.8167 233° Southwest 470 541 40,000  Level Anchorage Center
09:47PM 54.3667 170.6333 238° Southwest 460 529 40,000  Level Anchorage Center
09:48PM 54.3000 170.4833 233° Southwest 480 552 40,000  Level Anchorage Center
09:49PM 54.2000 170.2833 230° Southwest 470 541 40,000  Level Anchorage Center
09:50PM 54.1500 170.1333 240° Southwest 450 518 40,000  Level Anchorage Center
09:51PM 54.0500 169.9333 230° Southwest 470 541 40,000  Level Anchorage Center
09:52PM 53.9667 169.7500 232° Southwest 470 541 40,000  Level Anchorage Center
09:53PM 53.9000 169.6000 233° Southwest 460 529 40,000  Level Anchorage Center
09:54PM 53.8167 169.4000 235° Southwest 470 541 40,000 300 Level Anchorage Center
09:55PM 53.7500 169.2667 230° Southwest 450 518 40,700 480 Climbing Anchorage Center
09:56PM 53.6833 169.0500 243° Southwest 500 575 41,000 120 Climbing Anchorage Center
09:57PM 53.6167 168.8833 236° Southwest 460 529 41,000  Level Anchorage Center
09:58PM 53.5500 168.6833 241° Southwest 460 529 41,000  Level Anchorage Center
09:59PM 53.5000 168.5167 243° Southwest 460 529 41,000  Level Anchorage Center
10:00PM 53.4333 168.3167 241° Southwest 470 541 41,000  Level Anchorage Center
10:01PM 53.3667 168.1167 241° Southwest 470 541 41,000  Level Anchorage Center
10:02PM 53.2833 167.9500 230° Southwest 490 564 41,000  Level Anchorage Center
10:05PM 53.1595 167.5956 240° Southwest  Level FlightAware Approximate
10:06PM 53.0333 167.1667 239° Southwest 460 529 41,000  Level Anchorage Center
10:12PM 52.6398 166.1048 238° Southwest 460 529 41,000  Level FlightAware Transoceanic
10:13PM 52.5733 165.9297 238° Southwest 460 529 41,000  Level FlightAware Transoceanic
10:14PM 52.5066 165.7552 238° Southwest 460 529 41,000  Level FlightAware Transoceanic
10:15PM 52.4396 165.5811 238° Southwest 460 529 41,000  Level FlightAware Transoceanic
10:15PM 52.3833 165.4667 238° Southwest 459 528 41,000  Level Anchorage Center
10:16PM 52.3723 165.4076 237° Southwest 460 529 41,000  Level FlightAware Transoceanic
10:17PM 52.3048 165.2346 237° Southwest 460 529 41,000  Level FlightAware Transoceanic
10:18PM 52.2370 165.0621 237° Southwest 460 529 41,000  Level FlightAware Transoceanic
10:19PM 52.1690 164.8902 237° Southwest 460 529 41,000  Level FlightAware Transoceanic
10:20PM 52.1007 164.7188 237° Southwest 460 529 41,000  Level FlightAware Transoceanic
10:21PM 52.0322 164.5479 237° Southwest 460 529 41,000  Level FlightAware Transoceanic
10:22PM 51.9731 164.4264 237° Southwest 459 528 41,000  Level FlightAware Transoceanic
10:23PM 51.9038 164.2549 237° Southwest 459 528 41,000  Level FlightAware Transoceanic
10:24PM 51.8343 164.0839 237° Southwest 459 528 41,000  Level FlightAware Transoceanic
10:25PM 51.7646 163.9134 236° Southwest 459 528 41,000  Level FlightAware Transoceanic
10:25PM 51.7167 163.8000 236° Southwest 448 516 41,000  Level Anchorage Center
10:26PM 51.6946 163.7435 236° Southwest 459 528 41,000  Level FlightAware Transoceanic
10:26PM 51.6500 163.6500 236° Southwest 457 526 41,000  Level Anchorage Center
10:27PM 51.6244 163.5741 236° Southwest 459 528 41,000  Level FlightAware Transoceanic
10:28PM 51.5539 163.4052 236° Southwest 459 528 41,000  Level FlightAware Transoceanic
10:29PM 51.4831 163.2369 236° Southwest 459 528 41,000  Level FlightAware Transoceanic
10:30PM 51.4122 163.0690 236° Southwest 459 528 41,000  Level FlightAware Transoceanic
10:31PM 51.3026 162.8142 236° Southwest 448 516 41,000  Level FlightAware Transoceanic
10:32PM 51.2342 162.6636 236° Southwest 457 526 41,000  Level FlightAware Transoceanic
10:33PM 51.1641 162.5010 235° Southwest 457 526 41,000  Level FlightAware Transoceanic
10:34PM 51.0938 162.3388 235° Southwest 457 526 41,000  Level FlightAware Transoceanic
10:35PM 51.0233 162.1771 235° Southwest 457 526 41,000  Level FlightAware Transoceanic
10:35PM 51.0333 162.2000 235° Southwest 455 524 41,000  Level Anchorage Center
10:36PM 50.9525 162.0159 235° Southwest 457 526 41,000  Level FlightAware Transoceanic
10:37PM 50.8815 161.8553 235° Southwest 457 526 41,000  Level FlightAware Transoceanic
10:38PM 50.8103 161.6951 235° Southwest 457 526 41,000  Level FlightAware Transoceanic
10:39PM 50.7389 161.5354 235° Southwest 457 526 41,000  Level FlightAware Transoceanic
10:40PM 50.6673 161.3761 235° Southwest 457 526 41,000  Level FlightAware Transoceanic
10:41PM 50.6022 161.2324 234° Southwest 455 524 41,000  Level FlightAware Transoceanic
10:42PM 50.5296 161.0728 234° Southwest 455 524 41,000  Level FlightAware Transoceanic
10:43PM 50.4568 160.9138 234° Southwest 455 524 41,000  Level FlightAware Transoceanic
10:44PM 50.3837 160.7552 234° Southwest 455 524 41,000  Level FlightAware Transoceanic
10:44PM 50.3333 160.6500 234° Southwest 461 531 41,000  Level Anchorage Center
10:45PM 50.3104 160.5972 234° Southwest 455 524 41,000  Level FlightAware Transoceanic
10:46PM 50.2369 160.4396 234° Southwest 455 524 41,000  Level FlightAware Transoceanic
10:46PM 50.2000 160.3833 234° Southwest 458 527 41,000  Level Anchorage Center
10:47PM 50.1632 160.2825 234° Southwest 455 524 41,000  Level FlightAware Transoceanic
10:48PM 50.0893 160.1259 234° Southwest 455 524 41,000  Level FlightAware Transoceanic
10:49PM 50.0152 159.9697 233° Southwest 455 524 41,000  Level FlightAware Transoceanic
10:50PM 49.9496 159.8336 233° Southwest 461 531 41,000  Level FlightAware Transoceanic
10:51PM 49.8722 159.6719 233° Southwest 461 531 41,000  Level FlightAware Transoceanic
10:52PM 49.7863 159.4964 234° Southwest 458 527 41,000  Level FlightAware Transoceanic
10:53PM 49.7167 159.3500 233° Southwest 458 527 41,000  Level FlightAware Transoceanic
10:54PM 49.6394 159.1923 233° Southwest 458 527 41,000  Level FlightAware Transoceanic
10:55PM 49.5619 159.0351 233° Southwest 458 527 41,000  Level FlightAware Transoceanic
10:56PM 49.4843 158.8784 233° Southwest 458 527 41,000  Level FlightAware Transoceanic
10:57PM 49.4064 158.7222 232° Southwest 458 527 41,000  Level FlightAware Transoceanic
10:58PM 49.3283 158.5665 232° Southwest 458 527 41,000  Level FlightAware Transoceanic
10:59PM 49.2500 158.4113 232° Southwest 458 527 41,000  Level FlightAware Transoceanic
11:00PM 49.1714 158.2565 232° Southwest 458 527 41,000  Level FlightAware Transoceanic
11:01PM 49.0927 158.1023 232° Southwest 458 527 41,000  Level FlightAware Transoceanic
11:02PM 49.0138 157.9485 232° Southwest 458 527 41,000  Level FlightAware Transoceanic
11:03PM 48.9347 157.7953 232° Southwest 458 527 41,000  Level FlightAware Transoceanic
11:04PM 48.8553 157.6425 232° Southwest 458 527 41,000  Level FlightAware Transoceanic
11:05PM 48.7758 157.4902 232° Southwest 458 527 41,000  Level FlightAware Transoceanic
11:06PM 48.6960 157.3384 231° Southwest 458 527 41,000  Level FlightAware Transoceanic
11:07PM 48.6161 157.1871 231° Southwest 458 527 41,000  Level FlightAware Transoceanic
11:08PM 48.5360 157.0362 231° Southwest 458 527 41,000  Level FlightAware Transoceanic
11:09PM 48.4557 156.8859 231° Southwest 458 527 41,000  Level FlightAware Transoceanic
11:10PM 48.3751 156.7360 231° Southwest 458 527 41,000  Level FlightAware Transoceanic
11:11PM 48.2944 156.5865 231° Southwest 458 527 41,000  Level FlightAware Transoceanic
11:12PM 48.2135 156.4376 231° Southwest 458 527 41,000  Level FlightAware Transoceanic
11:13PM 48.1324 156.2891 231° Southwest 458 527 41,000  Level FlightAware Transoceanic
11:14PM 48.0511 156.1411 231° Southwest 458 527 41,000  Level FlightAware Transoceanic
11:15PM 47.9696 155.9936 230° Southwest 458 527 41,000  Level FlightAware Transoceanic
11:16PM 47.8880 155.8465 230° Southwest 458 527 41,000  Level FlightAware Transoceanic
11:17PM 47.8061 155.6999 230° Southwest 458 527 41,000  Level FlightAware Transoceanic
11:18PM 47.7240 155.5537 230° Southwest 458 527 41,000  Level FlightAware Transoceanic
11:19PM 47.6418 155.4080 230° Southwest 458 527 41,000  Level FlightAware Transoceanic
11:20PM 47.5594 155.2628 230° Southwest 458 527 41,000  Level FlightAware Transoceanic
11:21PM 47.4768 155.1180 230° Southwest 458 527 41,000  Level FlightAware Transoceanic
11:22PM 47.3940 154.9737 230° Southwest 458 527 41,000  Level FlightAware Transoceanic
11:23PM 47.3111 154.8298 230° Southwest 458 527 41,000  Level FlightAware Transoceanic
11:24PM 47.2279 154.6864 229° Southwest 458 527 41,000  Level FlightAware Transoceanic
11:25PM 47.1446 154.5435 229° Southwest 458 527 41,000  Level FlightAware Transoceanic
11:26PM 47.0611 154.4009 229° Southwest 458 527 41,000  Level FlightAware Transoceanic
11:27PM 46.9775 154.2589 229° Southwest 458 527 41,000  Level FlightAware Transoceanic
11:28PM 46.8936 154.1172 229° Southwest 458 527 41,000  Level FlightAware Transoceanic
11:29PM 46.8096 153.9760 229° Southwest 458 527 41,000  Level FlightAware Transoceanic
11:30PM 46.7254 153.8353 229° Southwest 458 527 41,000  Level FlightAware Transoceanic
11:31PM 46.6410 153.6950 229° Southwest 458 527 41,000  Level FlightAware Transoceanic
11:32PM 46.5565 153.5551 229° Southwest 458 527 41,000  Level FlightAware Transoceanic
11:33PM 46.4718 153.4157 229° Southwest 458 527 41,000  Level FlightAware Transoceanic
11:34PM 46.3869 153.2767 228° Southwest 458 527 41,000  Level FlightAware Transoceanic
11:35PM 46.3019 153.1381 228° Southwest 458 527 41,000  Level FlightAware Transoceanic
11:36PM 46.2145 152.9965 228° Southwest  Level FlightAware Approximate
11:37PM 46.2122 152.9929 228° Southwest  Level FlightAware Approximate
11:38PM 46.1241 152.8524 228° Southwest  Level FlightAware Approximate
11:39PM 46.0358 152.7124 228° Southwest  Level FlightAware Approximate
11:40PM 45.9474 152.5727 228° Southwest  Level FlightAware Approximate
11:41PM 45.8587 152.4335 228° Southwest  Level FlightAware Approximate
11:42PM 45.7700 152.2948 227° Southwest  Level FlightAware Approximate
11:43PM 45.6810 152.1565 227° Southwest  Level FlightAware Approximate
11:44PM 45.5919 152.0187 227° Southwest  Level FlightAware Approximate
11:45PM 45.5025 151.8813 227° Southwest  Level FlightAware Approximate
11:46PM 45.4131 151.7443 227° Southwest  Level FlightAware Approximate
11:47PM 45.3235 151.6078 227° Southwest  Level FlightAware Approximate
11:48PM 45.2337 151.4716 227° Southwest  Level FlightAware Approximate
11:49PM 45.1437 151.3360 227° Southwest  Level FlightAware Approximate
11:50PM 45.0536 151.2007 227° Southwest  Level FlightAware Approximate
11:51PM 44.9633 151.0659 227° Southwest  Level FlightAware Approximate
11:52PM 44.8729 150.9315 227° Southwest  Level FlightAware Approximate
11:53PM 44.7823 150.7975 226° Southwest  Level FlightAware Approximate
11:54PM 44.6916 150.6639 226° Southwest  Level FlightAware Approximate
11:55PM 44.6007 150.5308 226° Southwest  Level FlightAware Approximate
11:56PM 44.5096 150.3981 226° Southwest  Level FlightAware Approximate
11:57PM 44.4184 150.2658 226° Southwest  Level FlightAware Approximate
11:58PM 44.3271 150.1339 226° Southwest  Level FlightAware Approximate
11:59PM 44.2356 150.0024 226° Southwest  Level FlightAware Approximate
12:00AM 44.1439 149.8713 226° Southwest  Level FlightAware Approximate
12:01AM 44.0521 149.7406 226° Southwest  Level FlightAware Approximate
12:02AM 43.9601 149.6103 226° Southwest  Level FlightAware Approximate
12:03AM 43.8680 149.4805 225° Southwest  Level FlightAware Approximate
12:04AM 43.7758 149.3510 225° Southwest  Level FlightAware Approximate
12:05AM 43.6834 149.2219 225° Southwest  Level FlightAware Approximate
12:06AM 43.5908 149.0933 225° Southwest  Level FlightAware Approximate
12:06AM 43.4610 148.9140 225° Southwest 467 537 41,000  Level FlightAware
12:07AM 43.4982 148.9650 225° Southwest  Level FlightAware Approximate
12:07AM 43.4010 148.8310 225° Southwest 468 539 41,000  Level FlightAware
12:07AM 43.3300 148.7330 225° Southwest 475 547 41,000  Level FlightAware
12:08AM 43.2680 148.6490 225° Southwest 474 545 41,000  Level FlightAware
12:09AM 43.1980 148.5530 225° Southwest 474 545 41,000  Level FlightAware
12:09AM 43.1350 148.4680 225° Southwest 473 544 41,000  Level FlightAware
12:10AM 43.0670 148.3750 225° Southwest 474 545 41,000  Level FlightAware
12:11AM 43.0030 148.2890 225° Southwest 475 547 41,000  Level FlightAware
12:11AM 42.9440 148.2090 225° Southwest 475 547 41,000  Level FlightAware
12:12AM 42.8780 148.1210 224° Southwest 475 547 41,000  Level FlightAware
12:13AM 42.8090 148.0290 224° Southwest 475 547 41,000  Level FlightAware
12:14AM 42.7450 147.9440 224° Southwest 473 544 41,000  Level FlightAware
12:14AM 42.6750 147.8500 225° Southwest 473 544 41,000  Level FlightAware
12:15AM 42.6270 147.7870 224° Southwest 473 544 41,000  Level FlightAware
12:16AM 42.5570 147.6940 224° Southwest 473 544 41,000  Level FlightAware
12:16AM 42.4950 147.6120 224° Southwest 473 544 41,000  Level FlightAware
12:17AM 42.4310 147.5290 224° Southwest 472 543 41,000  Level FlightAware
12:18AM 42.3610 147.4360 224° Southwest 472 543 41,000  Level FlightAware
12:18AM 42.2910 147.3440 224° Southwest 472 543 41,000  Level FlightAware
12:19AM 42.2280 147.2620 224° Southwest 473 544 41,000  Level FlightAware
12:20AM 42.1660 147.1820 224° Southwest 473 544 41,000  Level FlightAware
12:20AM 42.0940 147.0880 224° Southwest 473 544 41,000  Level FlightAware
12:21AM 42.0310 147.0070 224° Southwest 474 545 41,000  Level FlightAware
12:22AM 41.9680 146.9260 224° Southwest 474 545 41,000  Level FlightAware
12:23AM 41.8960 146.8330 224° Southwest 469 540 41,000  Level FlightAware
12:23AM 41.8330 146.7520 224° Southwest 469 540 41,000  Level FlightAware
12:24AM 41.7610 146.6600 224° Southwest 471 542 41,000  Level FlightAware
12:25AM 41.6980 146.5790 224° Southwest 471 542 41,000  Level FlightAware
12:25AM 41.6340 146.4980 223° Southwest 471 542 41,000  Level FlightAware
12:26AM 41.5620 146.4070 223° Southwest 471 542 41,000  Level FlightAware
12:27AM 41.4980 146.3260 223° Southwest 469 540 41,000  Level FlightAware
12:27AM 41.4260 146.2350 223° Southwest 466 536 41,000  Level FlightAware
12:28AM 41.3630 146.1560 223° Southwest 468 539 41,000  Level FlightAware
12:29AM 41.3010 146.0780 223° Southwest 464 534 41,000  Level FlightAware
12:30AM 41.2300 145.9900 223° Southwest 463 533 41,000  Level FlightAware
12:30AM 41.1600 145.9020 223° Southwest 462 532 41,000  Level FlightAware
12:31AM 41.0980 145.8250 223° Southwest 463 533 41,000  Level FlightAware
12:32AM 41.0350 145.7470 223° Southwest 463 533 41,000  Level FlightAware
12:32AM 40.9720 145.6700 223° Southwest 462 532 41,000  Level FlightAware
12:33AM 40.9020 145.5840 223° Southwest 462 532 41,000  Level FlightAware
12:34AM 40.8390 145.5050 224° Southwest 462 532 41,000  Level FlightAware
12:34AM 40.7770 145.4300 223° Southwest 462 532 41,000  Level FlightAware
12:35AM 40.6990 145.3350 223° Southwest 460 529 41,000  Level FlightAware
12:36AM 40.6460 145.2700 223° Southwest 459 528 41,000  Level FlightAware
12:37AM 40.5740 145.1830 223° Southwest 460 529 41,000  Level FlightAware
12:37AM 40.5140 145.1100 223° Southwest 460 529 41,000  Level FlightAware
12:38AM 40.4410 145.0220 223° Southwest 461 531 41,000  Level FlightAware
12:39AM 40.3870 144.9580 222° Southwest 461 531 41,000  Level FlightAware
12:39AM 40.3220 144.8810 222° Southwest 461 531 41,000  Level FlightAware
12:40AM 40.2320 144.7720 223° Southwest 461 531 41,000  Level FlightAware
12:41AM 40.1840 144.7150 222° Southwest 461 531 41,000  Level FlightAware
12:42AM 40.1160 144.6350 222° Southwest 461 531 41,000  Level FlightAware
12:42AM 40.0680 144.5780 222° Southwest 461 531 41,000  Level FlightAware
12:43AM 39.9870 144.4830 222° Southwest 461 531 41,000  Level FlightAware
12:44AM 39.9380 144.4260 222° Southwest 461 531 41,000  Level FlightAware
12:45AM 39.8740 144.3510 222° Southwest 461 531 41,000  Level FlightAware
12:45AM 39.8250 144.2940 222° Southwest 461 531 41,000  Level FlightAware
12:46AM 39.7590 144.2160 222° Southwest 461 531 41,000  Level FlightAware
12:47AM 39.7130 144.1630 222° Southwest 461 531 41,000  Level FlightAware
12:48AM 39.6490 144.0870 222° Southwest 461 531 41,000  Level FlightAware
12:48AM 39.6000 144.0300 222° Southwest 461 531 41,000  Level FlightAware
12:49AM 39.5360 143.9550 222° Southwest 461 531 41,000  Level FlightAware
12:50AM 39.4870 143.8980 222° Southwest 461 531 41,000  Level FlightAware
12:50AM 39.2690 143.6410 222° Southwest 457 526 41,000  Level FlightAware
12:51AM 39.2010 143.5640 221° Southwest 456 525 41,000  Level FlightAware
12:51AM 39.1510 143.5330 206° Southwest 41,000  Level FlightAware
12:52AM 39.0740 143.4990 199° South 485 558 41,000  Level FlightAware
12:53AM 38.9470 143.4470 198° South 488 562 41,000  Level FlightAware
12:54AM 38.7930 143.3720 201° Southwest 470 541 41,000  Level FlightAware
12:55AM 38.7210 143.3270 206° Southwest 476 548 41,000  Level FlightAware
12:56AM 38.6250 143.2780 202° Southwest 471 542 41,000  Level FlightAware
12:56AM 38.5630 143.2460 202° Southwest 471 542 41,000  Level FlightAware
12:57AM 38.4520 143.1890 202° Southwest 479 551 41,000  Level FlightAware
12:58AM 38.3700 143.1460 202° Southwest 480 552 41,000  Level FlightAware
12:58AM 38.2830 143.1020 202° Southwest 480 552 41,000  Level FlightAware
12:59AM 38.2130 143.0660 202° Southwest 480 552 41,000  Level FlightAware
01:00AM 38.1120 143.0140 202° Southwest 477 549 41,000  Level FlightAware
01:01AM 38.0250 142.9700 202° Southwest 41,000  Level FlightAware
01:02AM 37.8470 142.8800 202° Southwest 478 550 41,000  Level FlightAware
01:03AM 37.7280 142.8200 202° Southwest 478 550 41,000  Level FlightAware
01:04AM 37.6520 142.7820 202° Southwest 478 550 41,000  Level FlightAware
01:04AM 37.5720 142.7420 202° Southwest 478 550 41,000  Level FlightAware
01:05AM 37.4410 142.6770 202° Southwest 477 549 41,000  Level FlightAware
01:06AM 37.3600 142.6360 202° Southwest 474 545 41,000  Level FlightAware
01:07AM 37.2600 142.5870 201° Southwest 469 540 41,000  Level FlightAware
01:08AM 37.1520 142.5330 202° Southwest 454 522 41,000  Level FlightAware
01:08AM 37.0570 142.4860 202° Southwest 452 520 41,000  Level FlightAware
01:10AM 36.9010 142.4090 202° Southwest 449 517 41,000 -60 Level FlightAware
01:11AM 36.7820 142.3510 201° Southwest 451 519 40,900 -1,500 Descending FlightAware
01:12AM 36.6940 142.3080 201° Southwest 453 521 38,400 -3,840 Descending FlightAware
01:12AM 36.6130 142.2680 202° Southwest 453 521 35,200 -4,620 Descending FlightAware
01:13AM 36.5410 142.2340 201° Southwest 450 518 32,300 -3,780 Descending FlightAware
01:14AM 36.4600 142.1940 202° Southwest 428 493 30,100 -2,700 Descending FlightAware
01:14AM 36.3810 142.1560 201° Southwest 415 478 28,500 -2,100 Descending FlightAware
01:15AM 36.3100 142.1220 201° Southwest 411 473 27,300 -1,680 Descending FlightAware
01:16AM 36.1870 142.0500 205° Southwest 402 463 25,400 -1,380 Descending FlightAware
01:17AM 36.1340 142.0020 216° Southwest 391 450 24,800 -1,200 Descending FlightAware
01:18AM 36.0650 141.9380 217° Southwest 386 444 23,700 -1,560 Descending FlightAware
01:18AM 36.0050 141.8830 217° Southwest 386 444 22,500 -1,740 Descending FlightAware
01:19AM 35.9520 141.8250 222° Southwest 375 432 21,400 -1,620 Descending FlightAware
01:20AM 35.9220 141.7410 246° West 357 411 20,300 -1,380 Descending FlightAware
01:20AM 35.8990 141.6560 252° West 355 409 19,400 -1,320 Descending FlightAware
01:21AM 35.8780 141.5810 251° West 351 404 18,500 -1,260 Descending FlightAware
01:22AM 35.8570 141.5040 251° West 345 397 17,700 -1,380 Descending FlightAware
01:23AM 35.8360 141.4250 252° West 345 397 16,600 -1,500 Descending FlightAware
01:23AM 35.8170 141.3550 252° West 342 394 15,800 -1,320 Descending FlightAware
01:24AM 35.7950 141.2720 252° West 338 389 14,800 -1,680 Descending FlightAware
01:25AM 35.7850 141.1790 262° West 13,700 -1,860 Descending FlightAware
01:25AM 35.8040 141.1060 288° West 318 366 11,900 -2,280 Descending FlightAware
01:26AM 35.8180 141.0360 284° West 291 335 10,600 -1,500 Descending FlightAware
01:27AM 35.8320 140.9630 283° West 276 318 9,800 -1,200 Descending FlightAware
01:27AM 35.8370 140.9360 283° West 277 319 9,400 -840 Descending FlightAware
01:28AM 35.8450 140.8950 284° West 276 318 9,200 -360 Descending FlightAware
01:28AM 35.8470 140.8820 281° West 276 318 9,200 -300 Level FlightAware
01:28AM 35.8590 140.8240 284° West 274 315 9,000 -600 Descending FlightAware
01:29AM 35.8650 140.7920 283° West 274 315 8,600 -960 Descending FlightAware
01:29AM 35.8730 140.7480 283° West 271 312 8,200 -960 Descending FlightAware
01:30AM 35.8810 140.7070 284° West 271 312 7,700 -1,080 Descending FlightAware
01:30AM 35.8890 140.6620 282° West 267 307 7,200 -600 Descending FlightAware
01:31AM 35.8960 140.6240 283° West 248 285 7,200 -480 Level FlightAware
01:31AM 35.9030 140.5880 284° West 246 283 6,800 -840 Descending FlightAware
01:31AM 35.9070 140.5620 281° West 241 277 6,600  Descending FlightAware
01:32AM 35.9120 140.5360 283° West 232 267 6,800 -960 Climbing FlightAware
01:32AM 35.9190 140.5000 284° West 230 265 5,800 -1,620 Descending FlightAware
01:33AM 35.9300 140.4420 283° West 233 268 4,900 -1,140 Descending FlightAware
01:33AM 35.9390 140.3980 284° West 230 265 4,400 -900 Descending FlightAware
01:34AM 35.9440 140.3700 282° West 217 250 4,100 -780 Descending FlightAware
01:34AM 35.9480 140.3510 285° West 213 245 3,900 -960 Descending FlightAware
01:35AM 35.9530 140.3270 284° West 214 246 3,500 -660 Descending FlightAware
01:36AM 35.9550 140.2550 272° West 211 243 3,000 -420 Descending FlightAware
01:36AM 35.9440 140.2480 207° Southwest 182 209 3,000  Level FlightAware
01:36AM 35.9230 140.2610 153° Southeast 160 184 3,000  Level FlightAware
01:36AM 35.9170 140.2650 152° Southeast 153 176 3,000  Level FlightAware
01:37AM 35.8980 140.2790 149° Southeast 152 175 3,000 -420 Level FlightAware
01:37AM 35.8780 140.2940 149° Southeast 153 176 2,600 -780 Descending FlightAware
01:38AM 35.8720 140.2980 152° Southeast 153 176 2,500 -720 Descending FlightAware
01:38AM 35.8540 140.3110 150° Southeast 137 158 2,100 -420 Descending FlightAware
01:39AM 35.8360 140.3230 152° Southeast 138 159 2,100 -660 Level FlightAware
01:39AM 35.8250 140.3320 146° Southeast 139 160 1,500 -660 Descending FlightAware
01:40AM 35.8120 140.3410 151° Southeast 139 160 1,500  Level FlightAware
01:42AM 35.7647 140.3864 253° West  Level Estimated
01:43AM 35.7647 140.3864 253° West  Level Estimated
01:44AM 35.7647 140.3864 253° West  Level Estimated
01:45AM 35.7647 140.3864 253° West  Level Estimated
01:46AM 35.7647 140.3864 253° West  Level Estimated
01:47AM 35.7647 140.3864 253° West  Level Estimated
01:48AM 35.7647 140.3864 253° West  Level Estimated
01:49AM 35.7647 140.3864 253° West  Level Estimated
01:50AM 35.7647 140.3864 253° West  Level Estimated
01:51AM 35.7647 140.3864 253° West  Level Estimated
01:52AM 35.7647 140.3864 253° West  Level Estimated
01:53AM 35.7647 140.3864 253° West  Level Estimated
01:54AM 35.7647 140.3864 253° West  Level Estimated
01:55AM 35.7647 140.3864 253° West  Level Estimated
01:56AM 35.7647 140.3864 253° West  Level Estimated